Mount Vernon, Texas
Current Conditions -  °F | °C
As of 8:35 PM on Friday 28 Nov 2014 (Local Time) from KOSA Reporting Station
Clear Clear  
Wind Chill: 58°   Ceiling: Unl
Heat Index: 58°   Visibility: 10mi
Dew Point: 49°   Wind: 9mph
Humidity: 72%   Direction: 160°SSE
Pressure: 30.07"   Gusts: NA
Location:  33.19°N, 95.22°W
Report Text: KOSA 290235Z AUTO 16008KT 10SM CLR 14/10 A3007 RMK AO1 T01440095
Loading
Personal Weather Stations






























Interactive Weather Map New forecast layout! Learn more

10-Day Weather Forecast

Advertisements
Track Severe Weather on mobile